createdAt,value
2022-07-25T00:01:01.463Z,9.93
2022-07-25T00:03:29.399Z,9.70
2022-07-25T00:05:56.824Z,13.20
2022-07-25T00:08:24.261Z,15.80
2022-07-25T00:10:51.608Z,9.75
2022-07-25T00:13:18.731Z,16.30
2022-07-25T00:15:46.161Z,11.80
2022-07-25T00:18:13.277Z,10.55
2022-07-25T00:20:40.502Z,13.85
2022-07-25T00:23:07.520Z,12.10
2022-07-25T00:25:34.627Z,13.52
2022-07-25T00:28:01.718Z,11.88
2022-07-25T00:30:29.009Z,12.38
2022-07-25T00:32:56.032Z,12.48
2022-07-25T00:35:23.148Z,16.92
2022-07-25T00:37:50.601Z,9.73
2022-07-25T00:40:17.788Z,11.48
2022-07-25T00:42:44.821Z,11.88
2022-07-25T00:45:12.127Z,13.55
2022-07-25T00:47:39.157Z,11.02
2022-07-25T00:50:07.059Z,12.60
2022-07-25T00:52:35.387Z,15.48
2022-07-25T00:55:02.482Z,12.77
2022-07-25T00:57:29.490Z,13.45
2022-07-25T00:59:56.752Z,9.98
2022-07-25T01:02:23.812Z,14.63
2022-07-25T01:04:51.155Z,12.10
2022-07-25T01:07:18.348Z,15.45
2022-07-25T01:09:48.395Z,18.55
2022-07-25T01:12:15.792Z,18.65
2022-07-25T01:14:43.029Z,13.25
2022-07-25T01:17:10.176Z,23.88
2022-07-25T01:19:37.245Z,14.05
2022-07-25T01:22:04.562Z,16.95
2022-07-25T01:24:31.607Z,19.52
2022-07-25T01:26:58.601Z,15.20
2022-07-25T01:29:25.689Z,16.80
2022-07-25T01:31:52.697Z,16.38
2022-07-25T01:34:19.820Z,16.23
2022-07-25T01:36:47.051Z,16.95
2022-07-25T01:39:15.164Z,14.15
2022-07-25T01:41:42.210Z,16.38
2022-07-25T01:44:09.737Z,18.00
2022-07-25T01:46:37.127Z,18.38
2022-07-25T01:49:04.760Z,15.55
2022-07-25T01:51:31.879Z,14.75
2022-07-25T01:53:58.917Z,16.42
2022-07-25T01:56:26.775Z,18.52
2022-07-25T01:58:55.797Z,18.80
2022-07-25T02:01:23.085Z,18.38
2022-07-25T02:03:52.155Z,20.35
2022-07-25T02:06:19.958Z,16.25
2022-07-25T02:08:47.010Z,20.10
2022-07-25T02:11:14.230Z,20.73
2022-07-25T02:13:41.481Z,17.58
2022-07-25T02:16:08.647Z,17.88
2022-07-25T02:18:35.948Z,22.85
2022-07-25T02:21:07.311Z,17.00
2022-07-25T05:03:31.183Z,29.23
2022-07-25T05:05:58.419Z,26.98
2022-07-25T05:08:25.430Z,25.80
2022-07-25T05:10:52.706Z,28.60
2022-07-25T05:13:21.382Z,29.75
2022-07-25T05:15:48.407Z,34.35
2022-07-25T05:18:15.927Z,27.00
2022-07-25T05:20:43.157Z,24.65
2022-07-25T05:23:10.399Z,29.63
2022-07-25T05:25:37.421Z,34.80
2022-07-25T07:28:54.680Z,15.10
2022-07-25T07:31:21.939Z,9.38
2022-07-25T07:33:49.211Z,11.80
2022-07-25T07:36:17.561Z,13.48
2022-07-25T07:38:45.150Z,13.50
2022-07-25T07:41:12.865Z,12.60
2022-07-25T07:43:39.994Z,8.77
2022-07-25T07:46:07.244Z,8.27
2022-07-25T07:48:34.707Z,14.27
2022-07-25T07:51:02.739Z,9.18
2022-07-25T07:53:49.765Z,12.68
2022-07-25T07:56:19.711Z,10.85
2022-07-25T07:58:46.912Z,10.07
2022-07-25T08:01:14.026Z,10.10
2022-07-25T08:03:41.772Z,13.80
2022-07-25T08:06:08.920Z,9.75
2022-07-25T08:08:35.941Z,10.82
2022-07-25T08:11:03.092Z,9.13
2022-07-25T08:13:32.087Z,10.40
2022-07-25T08:16:03.586Z,22.25
2022-07-25T08:18:34.770Z,14.25
2022-07-25T08:21:06.627Z,11.50
2022-07-25T08:23:39.170Z,9.18
2022-07-25T08:26:07.712Z,7.15
2022-07-25T08:28:34.855Z,15.50
2022-07-25T08:31:02.093Z,9.80
2022-07-25T08:33:29.736Z,9.18
2022-07-25T08:35:58.911Z,12.02
2022-07-25T08:38:28.644Z,10.55
2022-07-25T08:40:57.701Z,12.05
2022-07-25T08:43:24.802Z,19.38
2022-07-25T08:45:54.265Z,19.15
2022-07-25T08:48:25.829Z,7.88
2022-07-25T08:50:54.471Z,14.93
2022-07-25T08:53:37.666Z,8.02
2022-07-25T08:56:12.608Z,11.27
2022-07-25T08:58:44.116Z,11.13
2022-07-25T09:01:14.853Z,9.13
2022-07-25T09:03:45.102Z,13.65
2022-07-25T09:06:22.504Z,10.68
2022-07-25T09:08:58.171Z,10.90
2022-07-25T09:11:38.424Z,14.57
2022-07-25T09:14:14.982Z,9.52
2022-07-25T09:16:45.000Z,10.32
2022-07-25T09:19:21.827Z,10.70
2022-07-25T09:22:07.574Z,18.95
2022-07-25T09:24:37.541Z,20.95
2022-07-25T09:27:12.844Z,11.23
2022-07-25T09:29:42.954Z,14.65
2022-07-25T09:32:20.169Z,12.52
2022-07-25T09:34:49.868Z,13.50
2022-07-25T09:37:24.427Z,8.43
2022-07-25T09:39:52.667Z,14.10
2022-07-25T09:42:32.145Z,17.20
2022-07-25T09:45:14.689Z,18.75
2022-07-25T09:47:54.999Z,16.20
2022-07-25T09:50:24.558Z,12.13
2022-07-25T09:52:53.571Z,14.93
2022-07-25T09:55:24.178Z,17.65
2022-07-25T09:57:52.802Z,11.65
2022-07-25T10:00:24.299Z,15.90
2022-07-25T10:02:55.011Z,11.93
2022-07-25T10:05:51.130Z,14.77
2022-07-25T10:08:19.391Z,13.07
2022-07-25T10:10:46.642Z,15.70
2022-07-25T10:13:29.426Z,12.35
2022-07-25T10:15:56.520Z,27.05
2022-07-25T10:18:27.777Z,16.48
2022-07-25T10:24:00.203Z,9.25
2022-07-25T10:26:27.343Z,13.43
2022-07-25T10:28:56.400Z,11.32
2022-07-25T10:31:39.741Z,24.23
2022-07-25T10:34:10.806Z,9.50
2022-07-25T10:36:56.205Z,15.25
2022-07-25T10:39:24.101Z,18.23
2022-07-25T10:42:00.517Z,14.55
2022-07-25T10:44:40.121Z,13.43
2022-07-25T10:47:10.375Z,17.70
2022-07-25T11:02:34.414Z,21.02
2022-07-25T11:05:03.272Z,14.35
2022-07-25T11:07:36.260Z,18.25
2022-07-25T12:30:42.169Z,21.73
2022-07-25T16:32:28.603Z,12.40
2022-07-25T16:34:55.753Z,20.25
2022-07-25T16:37:22.799Z,14.98
2022-07-25T17:09:18.995Z,17.92
2022-07-25T17:11:46.269Z,16.63
2022-07-25T17:14:13.426Z,21.90
2022-07-25T17:16:41.703Z,31.83
2022-07-25T17:19:09.075Z,22.23
2022-07-25T17:21:36.855Z,15.80
2022-07-25T17:24:04.526Z,22.00
2022-07-25T17:26:31.667Z,35.08
2022-07-25T17:28:59.705Z,24.75
2022-07-25T17:31:27.274Z,29.92
2022-07-25T17:33:54.568Z,29.05
2022-07-25T17:36:24.179Z,21.10
2022-07-25T17:38:51.551Z,17.88
2022-07-25T17:41:18.712Z,21.75
2022-07-25T17:43:45.861Z,20.10
2022-07-25T17:46:14.344Z,26.10
2022-07-25T17:48:41.882Z,26.42
2022-07-25T17:51:09.107Z,34.17
2022-07-25T17:53:36.357Z,20.10
2022-07-25T17:56:04.445Z,22.67
2022-07-25T17:58:32.236Z,29.30
2022-07-25T18:01:01.355Z,16.77
2022-07-25T18:03:28.874Z,17.13
2022-07-25T18:05:56.061Z,32.92
2022-07-25T18:08:23.290Z,23.15
2022-07-25T18:10:50.955Z,19.55
2022-07-25T18:13:18.710Z,21.98
2022-07-25T18:15:46.835Z,29.45
2022-07-25T18:18:19.900Z,25.00
2022-07-25T18:35:30.172Z,26.17
2022-07-25T18:37:57.203Z,23.13
2022-07-25T18:40:24.272Z,34.38
2022-07-25T18:42:51.668Z,35.58
2022-07-25T18:45:18.735Z,31.45
2022-07-25T18:47:46.620Z,36.05
2022-07-25T18:50:14.016Z,22.88
2022-07-25T18:52:41.560Z,36.08
2022-07-25T18:55:09.713Z,26.17
2022-07-25T18:57:37.126Z,33.33
2022-07-25T19:00:07.691Z,27.60
2022-07-25T19:02:34.956Z,22.20
2022-07-25T19:05:02.337Z,24.85
2022-07-25T19:07:31.301Z,38.22
2022-07-25T19:09:58.406Z,29.15
2022-07-25T19:12:27.434Z,19.83
2022-07-25T19:14:55.274Z,31.65
2022-07-25T19:17:24.007Z,24.90
2022-07-25T19:19:52.288Z,28.98
2022-07-25T19:22:19.583Z,38.97
2022-07-25T19:24:46.728Z,27.73
2022-07-25T19:27:13.932Z,28.77
2022-07-25T19:29:42.949Z,24.75
2022-07-25T19:32:09.969Z,27.20
2022-07-25T19:34:37.586Z,39.85
2022-07-25T19:37:04.569Z,31.02
2022-07-25T19:39:31.613Z,28.33
2022-07-25T19:41:59.118Z,30.42
2022-07-25T19:44:26.183Z,24.23
2022-07-25T19:46:54.341Z,29.98
2022-07-25T19:49:21.489Z,28.30
2022-07-25T19:51:48.505Z,23.88
2022-07-25T19:54:15.951Z,31.35
2022-07-25T19:56:43.020Z,34.22
2022-07-25T19:59:10.050Z,27.55
2022-07-25T20:01:39.596Z,29.92
2022-07-25T20:04:09.221Z,34.05
2022-07-25T20:06:36.646Z,28.35
2022-07-25T20:09:05.045Z,29.95
2022-07-25T20:11:32.292Z,24.90
2022-07-25T20:14:00.198Z,23.48
2022-07-25T20:16:27.434Z,42.17
2022-07-25T20:18:54.568Z,26.02
2022-07-25T20:21:21.873Z,30.67
2022-07-25T20:23:49.067Z,32.75
2022-07-25T20:26:16.179Z,27.13
2022-07-25T21:10:36.225Z,31.80
2022-07-25T21:13:03.478Z,24.48
2022-07-25T21:15:33.748Z,27.67
2022-07-25T21:18:00.784Z,26.15
2022-07-25T21:20:28.231Z,25.55
2022-07-25T21:22:55.581Z,31.63
2022-07-25T21:25:22.778Z,28.13
2022-07-25T21:27:49.886Z,28.20
2022-07-25T21:42:33.716Z,27.23
2022-07-25T21:57:40.350Z,31.35
2022-07-25T22:00:12.365Z,27.52
2022-07-25T22:02:39.474Z,33.03
2022-07-25T22:05:07.201Z,46.72
2022-07-25T22:07:34.224Z,23.40
2022-07-25T22:24:46.618Z,31.90
2022-07-25T22:27:14.671Z,33.53
2022-07-25T22:29:41.740Z,26.70
2022-07-25T22:32:08.973Z,30.73
2022-07-25T22:34:36.387Z,40.83
2022-07-25T22:37:03.534Z,35.85
2022-07-25T22:39:30.718Z,30.98
2022-07-25T22:41:58.051Z,32.30
2022-07-25T22:44:25.364Z,24.90
2022-07-25T22:46:52.467Z,30.27
2022-07-25T22:49:19.904Z,36.30
2022-07-25T22:51:47.145Z,40.63
2022-07-25T22:54:16.707Z,33.28
2022-07-25T22:56:43.852Z,30.20
2022-07-25T22:59:11.637Z,31.98
2022-07-25T23:01:39.111Z,35.90
2022-07-25T23:04:06.291Z,35.45
2022-07-25T23:06:33.377Z,31.52
2022-07-25T23:09:00.455Z,35.13
2022-07-25T23:11:27.529Z,40.45
2022-07-25T23:13:54.700Z,33.85
2022-07-25T23:16:22.239Z,42.20
2022-07-25T23:18:49.512Z,38.38
2022-07-25T23:21:16.788Z,31.42
2022-07-25T23:23:44.015Z,26.23
2022-07-25T23:26:11.219Z,43.47
2022-07-25T23:28:38.431Z,33.80
2022-07-25T23:31:05.546Z,32.55
2022-07-25T23:33:32.687Z,39.97
2022-07-25T23:35:59.863Z,34.30
2022-07-25T23:38:27.136Z,27.63
2022-07-25T23:40:57.327Z,38.47
2022-07-25T23:43:56.136Z,51.67
2022-07-25T23:46:11.953Z,41.28
2022-07-25T23:48:39.053Z,39.90
2022-07-25T23:51:06.801Z,40.97
2022-07-25T23:53:36.564Z,50.45
2022-07-25T23:56:04.189Z,39.17
2022-07-25T23:58:34.501Z,44.38
